createdAt,value
2022-12-09T00:01:19.936Z,1.58
2022-12-09T00:03:48.693Z,1.57
2022-12-09T00:06:18.751Z,1.41
2022-12-09T00:08:47.476Z,1.43
2022-12-09T00:11:16.009Z,1.44
2022-12-09T00:13:44.615Z,1.43
2022-12-09T00:16:14.812Z,1.42
2022-12-09T00:18:44.906Z,1.50
2022-12-09T00:21:15.346Z,1.47
2022-12-09T00:23:43.682Z,1.57
2022-12-09T00:26:12.562Z,1.48
2022-12-09T00:28:41.146Z,1.43
2022-12-09T00:31:09.819Z,1.36
2022-12-09T00:33:38.565Z,1.31
2022-12-09T00:36:10.303Z,1.34
2022-12-09T00:38:39.226Z,1.26
2022-12-09T00:41:07.776Z,1.30
2022-12-09T00:43:36.346Z,1.28
2022-12-09T00:46:06.042Z,1.29
2022-12-09T00:48:38.679Z,1.40
2022-12-09T00:51:10.390Z,1.35
2022-12-09T00:53:39.724Z,1.28
2022-12-09T00:56:08.465Z,1.23
2022-12-09T00:58:37.010Z,1.23
2022-12-09T01:01:05.894Z,1.26
2022-12-09T01:03:34.664Z,1.28
2022-12-09T01:06:03.637Z,1.26
2022-12-09T01:08:35.969Z,1.33
2022-12-09T01:11:13.426Z,1.41
2022-12-09T01:13:41.981Z,1.32
2022-12-09T01:16:15.764Z,1.28
2022-12-09T01:18:44.570Z,1.16
2022-12-09T01:21:13.517Z,1.11
2022-12-09T01:23:44.082Z,1.00
2022-12-09T01:26:14.070Z,1.05
2022-12-09T01:28:42.892Z,1.07
2022-12-09T01:31:15.515Z,0.98
2022-12-09T01:33:46.955Z,0.97
2022-12-09T01:36:18.609Z,0.96
2022-12-09T01:38:49.521Z,0.93
2022-12-09T01:41:19.464Z,1.03
2022-12-09T01:44:07.485Z,0.99
2022-12-09T01:46:36.032Z,0.94
2022-12-09T01:49:05.048Z,0.94
2022-12-09T01:51:33.475Z,0.92
2022-12-09T01:54:03.675Z,0.92
2022-12-09T01:56:34.435Z,0.99
2022-12-09T01:59:07.045Z,1.14
2022-12-09T02:01:36.142Z,1.06
2022-12-09T02:04:05.817Z,0.94
2022-12-09T02:06:34.767Z,0.92
2022-12-09T02:09:05.081Z,0.92
2022-12-09T02:11:46.193Z,0.85
2022-12-09T02:14:18.637Z,0.93
2022-12-09T02:16:58.093Z,0.93
2022-12-09T02:19:41.287Z,0.97
2022-12-09T02:22:12.135Z,0.98
2022-12-09T02:24:46.492Z,0.89
2022-12-09T02:27:19.528Z,0.83
2022-12-09T02:30:05.730Z,0.88
2022-12-09T02:33:06.557Z,0.84
2022-12-09T02:35:41.141Z,0.88
2022-12-09T02:38:12.513Z,0.86
2022-12-09T02:40:47.213Z,0.89
2022-12-09T02:43:18.411Z,0.92
2022-12-09T02:45:48.925Z,0.95
2022-12-09T02:48:20.154Z,0.92
2022-12-09T02:51:00.394Z,0.90
2022-12-09T02:53:29.620Z,0.94
2022-12-09T02:55:59.110Z,0.88
2022-12-09T02:58:28.728Z,0.88
2022-12-09T03:00:58.444Z,0.95
2022-12-09T03:03:28.137Z,0.92
2022-12-09T03:06:03.303Z,0.95
2022-12-09T03:08:38.458Z,0.86
2022-12-09T03:11:09.218Z,0.83
2022-12-09T03:13:47.419Z,0.81
2022-12-09T03:16:22.071Z,0.91
2022-12-09T03:18:54.816Z,0.99
2022-12-09T03:21:28.146Z,1.03
2022-12-09T03:23:57.912Z,0.98
2022-12-09T03:26:29.444Z,1.00
2022-12-09T03:28:59.882Z,1.13
2022-12-09T03:31:30.677Z,0.84
2022-12-09T03:34:04.006Z,0.76
2022-12-09T03:36:37.343Z,0.77
2022-12-09T03:39:09.136Z,0.87
2022-12-09T03:41:39.134Z,0.80
2022-12-09T03:44:11.936Z,0.82
2022-12-09T03:46:40.458Z,0.85
2022-12-09T03:49:09.799Z,0.80
2022-12-09T03:51:43.213Z,0.75
2022-12-09T03:54:18.403Z,0.84
2022-12-09T03:56:49.272Z,0.90
2022-12-09T03:59:19.199Z,0.85
2022-12-09T04:01:49.409Z,0.88
2022-12-09T04:04:18.655Z,0.88
2022-12-09T04:06:49.841Z,0.90
2022-12-09T04:09:19.002Z,1.08
2022-12-09T04:11:47.578Z,0.95
2022-12-09T04:14:16.488Z,0.91
2022-12-09T04:16:45.487Z,0.94
2022-12-09T04:19:15.603Z,0.92
2022-12-09T04:21:44.073Z,0.86
2022-12-09T04:24:14.296Z,0.89
2022-12-09T04:26:42.632Z,0.91
2022-12-09T04:29:11.476Z,0.94
2022-12-09T04:31:40.558Z,1.05
2022-12-09T04:34:10.052Z,1.08
2022-12-09T04:36:40.133Z,1.08
2022-12-09T04:39:09.127Z,1.15
2022-12-09T04:41:39.050Z,1.16
2022-12-09T04:44:07.824Z,1.19
2022-12-09T04:46:38.675Z,1.20
2022-12-09T04:49:07.516Z,1.23
2022-12-09T04:51:39.903Z,1.21
2022-12-09T04:54:08.911Z,1.24
2022-12-09T04:56:39.550Z,1.29
2022-12-09T04:59:08.598Z,1.27
2022-12-09T05:01:38.569Z,1.27
2022-12-09T05:04:07.623Z,1.29
2022-12-09T05:06:38.702Z,1.28
2022-12-09T05:09:07.221Z,1.24
2022-12-09T05:11:36.034Z,1.16
2022-12-09T05:14:08.464Z,1.50
2022-12-09T05:16:37.275Z,1.56
2022-12-09T05:19:06.254Z,1.40
2022-12-09T05:21:34.798Z,1.31
2022-12-09T05:24:03.987Z,1.25
2022-12-09T05:26:33.352Z,1.23
2022-12-09T05:29:03.616Z,1.18
2022-12-09T05:31:58.289Z,1.14
2022-12-09T05:34:27.332Z,1.15
2022-12-09T05:36:56.130Z,1.19
2022-12-09T05:39:24.612Z,1.15
2022-12-09T05:41:53.873Z,1.09
2022-12-09T05:44:22.655Z,1.05
2022-12-09T05:46:51.472Z,1.06
2022-12-09T05:49:21.476Z,1.09
2022-12-09T05:51:50.430Z,1.00
2022-12-09T05:54:18.874Z,0.99
2022-12-09T05:56:48.875Z,1.01
2022-12-09T05:59:17.712Z,1.02
2022-12-09T06:01:46.381Z,1.03
2022-12-09T06:04:14.853Z,1.02
2022-12-09T06:06:45.138Z,1.04
2022-12-09T06:09:14.003Z,1.03
2022-12-09T06:11:42.585Z,1.00
2022-12-09T06:14:12.658Z,1.08
2022-12-09T06:16:41.488Z,1.02
2022-12-09T06:19:12.106Z,0.98
2022-12-09T06:21:42.467Z,0.94
2022-12-09T06:24:13.633Z,0.94
2022-12-09T06:26:42.357Z,0.95
2022-12-09T06:29:11.622Z,0.93
2022-12-09T06:31:40.023Z,0.93
2022-12-09T06:34:08.514Z,0.90
2022-12-09T06:36:37.452Z,0.88
2022-12-09T06:39:10.589Z,0.94
2022-12-09T06:41:42.171Z,0.99
2022-12-09T06:44:15.659Z,0.95
2022-12-09T06:46:48.676Z,1.02
2022-12-09T06:49:17.383Z,1.01
2022-12-09T06:51:46.283Z,0.98
2022-12-09T06:54:14.833Z,1.01
2022-12-09T06:56:44.803Z,1.07
2022-12-09T06:59:13.234Z,1.09
2022-12-09T07:01:41.938Z,1.15
2022-12-09T07:04:13.873Z,1.15
2022-12-09T07:06:44.485Z,1.22
2022-12-09T07:09:14.789Z,1.24
2022-12-09T07:11:46.381Z,1.27
2022-12-09T07:14:16.120Z,1.28
2022-12-09T07:16:44.682Z,1.31
2022-12-09T07:19:18.173Z,1.38
2022-12-09T07:21:47.012Z,1.51
2022-12-09T07:24:16.694Z,1.61
2022-12-09T07:26:46.985Z,1.57
2022-12-09T07:29:15.909Z,1.67
2022-12-09T07:31:45.321Z,1.60
2022-12-09T07:34:14.415Z,1.60
2022-12-09T07:36:43.366Z,1.52
2022-12-09T07:39:14.617Z,1.46
2022-12-09T07:41:43.509Z,1.37
2022-12-09T07:44:14.343Z,1.36
2022-12-09T07:46:43.033Z,1.46
2022-12-09T07:49:13.076Z,1.49
2022-12-09T07:51:42.646Z,1.49
2022-12-09T07:54:13.048Z,1.38
2022-12-09T07:56:42.799Z,1.55
2022-12-09T07:59:15.321Z,1.58
2022-12-09T08:01:44.471Z,1.70
2022-12-09T08:04:13.403Z,1.72
2022-12-09T08:06:42.540Z,1.60
2022-12-09T08:09:13.638Z,1.55
2022-12-09T08:11:42.695Z,1.58
2022-12-09T08:14:13.740Z,1.63
2022-12-09T08:16:43.571Z,1.53
2022-12-09T08:19:13.420Z,1.68
2022-12-09T08:21:42.565Z,1.73
2022-12-09T08:24:12.812Z,1.77
2022-12-09T08:26:42.107Z,1.69
2022-12-09T08:29:14.641Z,1.72
2022-12-09T08:31:44.640Z,1.76
2022-12-09T08:34:14.375Z,1.82
2022-12-09T08:36:43.683Z,1.81
2022-12-09T08:39:13.511Z,1.90
2022-12-09T08:41:42.525Z,1.92
2022-12-09T08:44:13.691Z,1.86
2022-12-09T08:46:44.545Z,1.94
2022-12-09T08:49:13.692Z,1.95
2022-12-09T08:51:42.790Z,2.04
2022-12-09T08:54:11.423Z,2.11
2022-12-09T08:56:40.233Z,2.21
2022-12-09T08:59:09.129Z,2.17
2022-12-09T09:01:39.284Z,2.14
2022-12-09T09:04:09.971Z,2.21
2022-12-09T09:06:40.763Z,2.34
2022-12-09T09:09:11.645Z,2.34
2022-12-09T09:11:41.386Z,2.39
2022-12-09T09:14:12.469Z,2.53
2022-12-09T09:16:44.201Z,2.49
2022-12-09T09:19:16.757Z,2.51
2022-12-09T09:21:45.765Z,2.55
2022-12-09T09:24:16.749Z,2.68
2022-12-09T09:26:45.642Z,2.67
2022-12-09T09:29:14.444Z,2.59
2022-12-09T09:31:44.963Z,2.66
2022-12-09T09:34:14.070Z,2.84
2022-12-09T09:36:42.890Z,2.82
2022-12-09T09:39:11.840Z,2.82
2022-12-09T09:41:47.327Z,2.94
2022-12-09T09:44:23.150Z,2.89
2022-12-09T09:46:54.926Z,2.99
2022-12-09T09:49:37.570Z,3.03
2022-12-09T09:52:10.289Z,3.09
2022-12-09T09:54:39.404Z,3.20
2022-12-09T09:57:15.706Z,3.43
2022-12-09T09:59:54.078Z,3.39
2022-12-09T10:02:34.582Z,3.40
2022-12-09T10:05:08.959Z,3.28
2022-12-09T10:07:42.219Z,3.42
2022-12-09T10:10:21.793Z,3.54
2022-12-09T10:13:06.095Z,3.64
2022-12-09T10:15:42.339Z,3.38
2022-12-09T10:18:21.933Z,3.35
2022-12-09T10:20:50.813Z,3.43
2022-12-09T10:23:20.007Z,3.41
2022-12-09T10:25:50.914Z,3.32
2022-12-09T10:28:22.402Z,3.53
2022-12-09T10:30:51.845Z,3.66
2022-12-09T10:33:29.686Z,3.38
2022-12-09T10:36:01.512Z,3.06
2022-12-09T10:38:31.119Z,3.14
2022-12-09T10:41:04.387Z,3.11
2022-12-09T10:43:37.434Z,3.02
2022-12-09T10:46:25.621Z,3.10
2022-12-09T10:49:01.667Z,3.16
2022-12-09T10:51:32.761Z,3.29
2022-12-09T10:54:04.446Z,3.34
2022-12-09T10:56:34.257Z,3.49
2022-12-09T10:59:18.162Z,3.16
2022-12-09T11:01:51.664Z,2.96
2022-12-09T11:04:26.840Z,3.17
2022-12-09T11:07:00.240Z,3.09
2022-12-09T11:09:31.243Z,3.20
2022-12-09T11:12:01.163Z,3.34
2022-12-09T11:14:34.198Z,3.06
2022-12-09T11:17:14.605Z,3.12
2022-12-09T11:19:48.837Z,3.19
2022-12-09T11:22:39.591Z,3.21
2022-12-09T11:25:20.326Z,3.25
2022-12-09T11:27:52.224Z,3.17
2022-12-09T11:30:23.153Z,3.15
2022-12-09T11:32:58.001Z,3.14
2022-12-09T11:35:32.445Z,3.04
2022-12-09T11:38:06.269Z,3.23
2022-12-09T11:40:35.579Z,3.25
2022-12-09T11:43:03.930Z,3.12
2022-12-09T11:45:36.515Z,3.25
2022-12-09T11:48:27.593Z,3.30
2022-12-09T11:50:58.177Z,3.31
2022-12-09T11:53:31.170Z,3.43
2022-12-09T11:56:04.197Z,3.60
2022-12-09T11:58:38.941Z,3.56
2022-12-09T12:01:11.878Z,3.51
2022-12-09T12:03:44.918Z,3.40
2022-12-09T12:06:19.925Z,3.32
2022-12-09T12:08:51.516Z,3.42
2022-12-09T12:11:22.188Z,3.39
2022-12-09T12:13:54.049Z,3.28
2022-12-09T12:16:28.847Z,3.28
2022-12-09T12:19:03.167Z,3.25
2022-12-09T12:21:47.967Z,3.33
2022-12-09T12:24:45.580Z,3.28
2022-12-09T12:27:22.877Z,3.31
2022-12-09T12:29:55.970Z,3.26
2022-12-09T12:33:40.838Z,3.21
2022-12-09T12:36:01.457Z,3.24
2022-12-09T12:38:48.251Z,3.58
2022-12-09T12:41:22.153Z,3.20
2022-12-09T12:44:21.072Z,3.26
2022-12-09T12:46:59.059Z,3.23
2022-12-09T12:49:53.010Z,3.30
2022-12-09T12:52:54.761Z,3.35
2022-12-09T12:55:34.491Z,3.26
2022-12-09T12:58:07.548Z,3.28
2022-12-09T13:00:39.637Z,3.30
2022-12-09T13:03:21.085Z,3.37
2022-12-09T13:05:52.392Z,3.22
2022-12-09T13:08:24.825Z,3.16
2022-12-09T13:10:57.223Z,3.02
2022-12-09T13:13:29.853Z,3.03
2022-12-09T13:16:00.323Z,3.13
2022-12-09T13:18:31.611Z,3.06
2022-12-09T13:21:01.249Z,3.13
2022-12-09T13:23:39.080Z,3.13
2022-12-09T13:26:19.147Z,3.12
2022-12-09T13:28:52.167Z,3.13
2022-12-09T13:31:26.176Z,3.18
2022-12-09T13:33:58.303Z,3.26
2022-12-09T13:36:36.747Z,3.18
2022-12-09T13:39:05.870Z,3.15
2022-12-09T13:41:58.347Z,3.20
2022-12-09T13:44:34.098Z,3.18
2022-12-09T13:47:27.074Z,3.08
2022-12-09T13:49:59.244Z,2.95
2022-12-09T13:52:47.101Z,3.02
2022-12-09T13:55:30.908Z,2.94
2022-12-09T13:58:12.270Z,2.88
2022-12-09T14:00:43.173Z,2.83
2022-12-09T14:03:31.913Z,3.02
2022-12-09T14:06:01.814Z,3.00
2022-12-09T14:08:34.362Z,2.94
2022-12-09T14:11:49.730Z,2.97
2022-12-09T14:14:39.791Z,2.86
2022-12-09T14:17:20.591Z,2.77
2022-12-09T14:19:56.501Z,2.73
2022-12-09T14:22:37.742Z,2.64
2022-12-09T14:25:50.998Z,2.57
2022-12-09T14:28:56.263Z,2.57
2022-12-09T14:31:51.470Z,2.65
2022-12-09T14:34:38.501Z,2.63
2022-12-09T14:37:36.560Z,2.66
2022-12-09T14:40:21.690Z,2.81
2022-12-09T14:42:54.819Z,2.79
2022-12-09T14:45:31.043Z,2.76
2022-12-09T14:48:01.522Z,2.80
2022-12-09T14:50:30.792Z,2.69
2022-12-09T14:53:01.864Z,2.66
2022-12-09T14:55:32.073Z,2.66
2022-12-09T14:58:01.950Z,2.47
2022-12-09T15:00:34.019Z,2.50
2022-12-09T15:05:58.588Z,2.60
2022-12-09T15:08:46.807Z,2.70
2022-12-09T15:11:23.508Z,2.66
2022-12-09T15:13:55.977Z,2.65
2022-12-09T15:16:27.118Z,2.55
2022-12-09T15:18:57.145Z,2.47
2022-12-09T15:21:31.015Z,2.50
2022-12-09T15:24:00.501Z,2.44
2022-12-09T15:26:32.429Z,2.53
2022-12-09T15:29:05.175Z,2.44
2022-12-09T15:31:35.861Z,2.44
2022-12-09T15:34:15.882Z,2.46
2022-12-09T15:36:47.421Z,2.36
2022-12-09T15:39:21.418Z,2.34
2022-12-09T15:42:10.974Z,2.36
2022-12-09T15:44:43.957Z,2.32
2022-12-09T15:47:18.997Z,2.38
2022-12-09T15:49:53.540Z,2.43
2022-12-09T15:52:27.939Z,2.38
2022-12-09T15:54:56.888Z,2.37
2022-12-09T15:57:28.590Z,2.26
2022-12-09T15:59:59.395Z,2.21
2022-12-09T16:02:30.638Z,2.25
2022-12-09T16:05:04.998Z,2.31
2022-12-09T16:07:33.942Z,2.31
2022-12-09T16:10:07.019Z,2.35
2022-12-09T16:12:37.666Z,2.38
2022-12-09T16:15:12.968Z,2.38
2022-12-09T16:17:59.363Z,2.36
2022-12-09T16:20:45.810Z,2.31
2022-12-09T16:23:22.666Z,2.34
2022-12-09T16:25:53.019Z,2.33
2022-12-09T16:28:24.471Z,2.32
2022-12-09T16:30:57.998Z,2.37
2022-12-09T16:33:28.195Z,2.29
2022-12-09T16:36:02.385Z,2.15
2022-12-09T16:38:35.117Z,2.16
2022-12-09T16:41:11.712Z,2.19
2022-12-09T16:43:58.148Z,2.21
2022-12-09T16:46:49.675Z,2.27
2022-12-09T16:49:23.568Z,2.21
2022-12-09T16:51:54.807Z,2.16
2022-12-09T16:54:28.978Z,2.17
2022-12-09T16:57:00.339Z,2.16
2022-12-09T16:59:38.239Z,2.09
2022-12-09T17:02:16.399Z,2.09
2022-12-09T17:04:46.805Z,2.12
2022-12-09T17:07:21.546Z,2.11
2022-12-09T17:09:53.093Z,2.11
2022-12-09T17:12:31.296Z,2.15
2022-12-09T17:15:06.290Z,2.13
2022-12-09T17:17:37.995Z,2.16
2022-12-09T17:20:09.074Z,2.16
2022-12-09T17:22:42.791Z,2.13
2022-12-09T17:25:14.217Z,2.19
2022-12-09T17:27:45.824Z,2.19
2022-12-09T17:30:16.944Z,2.15
2022-12-09T17:32:47.984Z,2.07
2022-12-09T17:35:19.121Z,2.09
2022-12-09T17:37:59.848Z,2.05
2022-12-09T17:40:30.877Z,2.12
2022-12-09T17:43:01.351Z,2.15
2022-12-09T17:45:40.359Z,2.08
2022-12-09T17:48:12.716Z,2.02
2022-12-09T17:50:44.378Z,1.98
2022-12-09T17:53:16.845Z,1.95
2022-12-09T17:55:45.822Z,1.94
2022-12-09T17:58:15.785Z,1.95
2022-12-09T18:00:48.640Z,2.02
2022-12-09T18:03:53.897Z,1.97
2022-12-09T18:06:16.292Z,1.93
2022-12-09T18:08:46.497Z,1.94
2022-12-09T18:11:18.203Z,1.93
2022-12-09T18:13:46.874Z,1.93
2022-12-09T18:16:17.287Z,1.92
2022-12-09T18:18:47.031Z,1.96
2022-12-09T18:21:16.746Z,1.97
2022-12-09T18:23:48.491Z,1.85
2022-12-09T18:26:24.574Z,1.83
2022-12-09T18:28:58.058Z,1.82
2022-12-09T18:31:27.670Z,1.82
2022-12-09T18:33:56.738Z,1.83
2022-12-09T18:36:27.601Z,1.72
2022-12-09T18:38:58.731Z,1.71
2022-12-09T18:41:30.501Z,1.75
2022-12-09T18:44:01.870Z,1.69
2022-12-09T18:46:33.051Z,1.64
2022-12-09T18:49:05.514Z,1.66
2022-12-09T18:51:34.555Z,1.60
2022-12-09T18:54:07.224Z,1.54
2022-12-09T18:56:40.584Z,1.49
2022-12-09T18:59:10.644Z,1.57
2022-12-09T19:01:42.975Z,1.59
2022-12-09T19:04:15.904Z,1.66
2022-12-09T19:06:47.852Z,1.76
2022-12-09T19:09:22.521Z,1.67
2022-12-09T19:11:53.297Z,1.70
2022-12-09T19:14:28.187Z,1.72
2022-12-09T19:16:58.448Z,1.79
2022-12-09T19:19:29.497Z,1.83
2022-12-09T19:22:04.438Z,1.96
2022-12-09T19:24:42.738Z,1.97
2022-12-09T19:27:16.555Z,1.97
2022-12-09T19:29:49.034Z,1.95
2022-12-09T19:32:51.312Z,1.89
2022-12-09T19:35:11.763Z,1.89
2022-12-09T19:37:44.865Z,1.92
2022-12-09T19:40:18.885Z,1.93
2022-12-09T19:42:48.817Z,1.96
2022-12-09T19:45:18.754Z,2.02
2022-12-09T19:47:52.066Z,2.01
2022-12-09T19:50:23.642Z,2.05
2022-12-09T19:52:53.775Z,2.10
2022-12-09T19:55:24.579Z,2.12
2022-12-09T19:57:54.140Z,2.12
2022-12-09T20:00:24.412Z,2.10
2022-12-09T20:02:54.309Z,1.97
2022-12-09T20:05:23.831Z,2.03
2022-12-09T20:07:54.551Z,2.04
2022-12-09T20:10:27.062Z,2.06
2022-12-09T20:13:04.704Z,2.07
2022-12-09T20:15:36.206Z,2.09
2022-12-09T20:18:07.249Z,2.07
2022-12-09T20:20:44.323Z,2.12
2022-12-09T20:23:18.968Z,2.12
2022-12-09T20:25:50.426Z,2.14
2022-12-09T20:28:23.525Z,2.21
2022-12-09T20:30:53.993Z,2.09
2022-12-09T20:33:24.165Z,2.07
2022-12-09T20:35:54.377Z,2.13
2022-12-09T20:38:26.023Z,2.14
2022-12-09T20:40:58.364Z,2.18
2022-12-09T20:43:28.617Z,2.13
2022-12-09T20:45:57.881Z,2.15
2022-12-09T20:48:26.918Z,2.01
2022-12-09T20:50:56.985Z,2.04
2022-12-09T20:53:27.026Z,2.01
2022-12-09T20:56:02.646Z,2.12
2022-12-09T20:58:32.681Z,2.05
2022-12-09T21:01:11.316Z,1.86
2022-12-09T21:03:41.513Z,1.72
2022-12-09T21:06:11.900Z,1.68
2022-12-09T21:08:42.103Z,1.62
2022-12-09T21:11:15.265Z,1.58
2022-12-09T21:13:47.691Z,1.53
2022-12-09T21:16:20.798Z,1.55
2022-12-09T21:18:52.943Z,1.52
2022-12-09T21:21:25.265Z,1.43
2022-12-09T21:23:55.778Z,1.29
2022-12-09T21:26:33.131Z,1.23
2022-12-09T21:29:04.324Z,1.24
2022-12-09T21:31:36.853Z,1.24
2022-12-09T21:34:09.479Z,1.35
2022-12-09T21:36:43.742Z,1.37
2022-12-09T21:39:18.327Z,1.31
2022-12-09T21:41:50.089Z,1.27
2022-12-09T21:44:22.515Z,1.26
2022-12-09T21:46:55.894Z,1.33
2022-12-09T21:49:25.315Z,1.31
2022-12-09T21:51:54.412Z,1.42
2022-12-09T21:54:23.461Z,1.44
2022-12-09T21:56:56.217Z,1.51
2022-12-09T21:59:25.349Z,1.53
2022-12-09T22:01:56.319Z,1.59
2022-12-09T22:04:24.815Z,1.70
2022-12-09T22:06:53.523Z,1.69
2022-12-09T22:09:22.061Z,1.70
2022-12-09T22:11:50.607Z,1.70
2022-12-09T22:14:20.631Z,1.70
2022-12-09T22:16:49.435Z,1.72
2022-12-09T22:19:20.086Z,1.68
2022-12-09T22:21:49.300Z,1.73
2022-12-09T22:24:18.620Z,1.77
2022-12-09T22:26:48.185Z,1.77
2022-12-09T22:29:17.873Z,1.80
2022-12-09T22:31:48.285Z,1.82
2022-12-09T22:34:19.015Z,1.84
2022-12-09T22:36:49.695Z,1.86
2022-12-09T22:39:21.680Z,1.86
2022-12-09T22:41:53.610Z,1.86
2022-12-09T22:44:22.360Z,1.95
2022-12-09T22:46:52.277Z,1.94
2022-12-09T22:49:20.602Z,1.93
2022-12-09T22:51:49.651Z,1.92
2022-12-09T22:54:20.267Z,1.95
2022-12-09T22:56:48.705Z,1.92
2022-12-09T22:59:17.313Z,1.87
2022-12-09T23:01:47.159Z,1.87
2022-12-09T23:04:18.588Z,1.94
2022-12-09T23:06:47.105Z,1.91
2022-12-09T23:09:18.442Z,1.91
2022-12-09T23:11:47.069Z,1.99
2022-12-09T23:14:16.204Z,1.99
2022-12-09T23:16:45.141Z,1.95
2022-12-09T23:19:14.579Z,1.95
2022-12-09T23:21:44.796Z,2.02
2022-12-09T23:24:21.017Z,2.13
2022-12-09T23:26:53.111Z,2.07
2022-12-09T23:29:22.228Z,2.03
2022-12-09T23:31:51.099Z,2.17
2022-12-09T23:34:20.356Z,2.02
2022-12-09T23:36:50.312Z,1.90
2022-12-09T23:39:19.585Z,2.06
2022-12-09T23:41:48.167Z,2.07
2022-12-09T23:44:19.017Z,2.12
2022-12-09T23:46:47.914Z,2.10
2022-12-09T23:49:16.987Z,2.15
2022-12-09T23:51:46.133Z,2.15
2022-12-09T23:54:18.148Z,2.13
2022-12-09T23:56:50.095Z,2.13
2022-12-09T23:59:20.693Z,2.21
